Terminal Aerodrome Forecast
Issued by NWS

Home | Current Version | Previous Version | Text Only | Print | Product List | Glossary On
Versions: 1 2 3 4 5 6 7 8 9 10 11 12 13 14 15 16 17 18
180
FTUS42 KFFC 240536
TAFRYY
TAF
KRYY 240536Z 2406/2506 00000KT P6SM FEW250
     FM241000 14004KT 4SM BR BKN010
     FM241500 16006KT P6SM SCT025
     FM241800 17008KT P6SM SCT040
     FM250000 17004KT P6SM SCT040
     FM250500 20006KT P6SM BKN035
      AMD NOT SKED TIL 241200=

USA.gov is the U.S. government's official web portal to all federal, state and local government web resources and services.